createdAt,value
2023-04-02T00:01:39.289Z,6.66
2023-04-02T00:05:56.847Z,6.66
2023-04-02T00:10:03.107Z,6.67
2023-04-02T00:14:07.979Z,6.65
2023-04-02T00:18:16.857Z,6.64
2023-04-02T00:22:21.487Z,6.62
2023-04-02T00:26:31.876Z,6.62
2023-04-02T00:30:36.620Z,6.60
2023-04-02T00:34:41.359Z,6.58
2023-04-02T00:38:47.510Z,6.58
2023-04-02T00:42:55.067Z,6.55
2023-04-02T00:47:04.499Z,6.55
2023-04-02T00:51:16.052Z,6.55
2023-04-02T00:55:23.660Z,6.55
2023-04-02T00:59:30.917Z,6.56
2023-04-02T01:03:37.501Z,6.56
2023-04-02T01:08:03.475Z,6.54
2023-04-02T01:12:29.876Z,6.54
2023-04-02T01:16:46.859Z,6.54
2023-04-02T01:21:26.258Z,6.52
2023-04-02T01:25:36.556Z,6.48
2023-04-02T01:29:47.432Z,6.47
2023-04-02T01:33:52.519Z,6.48
2023-04-02T01:38:07.680Z,6.45
2023-04-02T01:42:22.133Z,6.42
2023-04-02T01:46:33.210Z,6.42
2023-04-02T01:50:38.312Z,6.42
2023-04-02T01:54:41.555Z,6.41
2023-04-02T01:58:44.945Z,6.42
2023-04-02T02:02:52.154Z,6.42
2023-04-02T02:06:58.838Z,6.42
2023-04-02T02:11:03.174Z,6.40
2023-04-02T02:15:15.031Z,6.35
2023-04-02T02:19:27.340Z,6.31
2023-04-02T02:23:31.305Z,6.27
2023-04-02T02:27:51.034Z,6.22
2023-04-02T02:31:57.606Z,6.18
2023-04-02T02:36:07.035Z,6.16
2023-04-02T02:40:17.668Z,6.13
2023-04-02T02:44:25.324Z,6.10
2023-04-02T02:48:37.932Z,6.04
2023-04-02T02:52:48.618Z,6.00
2023-04-02T02:57:01.721Z,5.95
2023-04-02T03:01:05.766Z,5.93
2023-04-02T03:05:09.858Z,5.93
2023-04-02T03:09:23.463Z,5.92
2023-04-02T03:13:32.974Z,5.87
2023-04-02T03:17:41.081Z,5.88
2023-04-02T03:21:49.607Z,5.83
2023-04-02T03:26:02.573Z,5.81
2023-04-02T03:30:19.792Z,5.82
2023-04-02T03:34:29.906Z,5.80
2023-04-02T03:38:35.885Z,5.77
2023-04-02T03:42:47.097Z,5.78
2023-04-02T03:46:57.774Z,5.77
2023-04-02T03:51:06.782Z,5.67
2023-04-02T03:55:16.669Z,5.58
2023-04-02T03:59:33.114Z,5.52
2023-04-02T04:03:43.926Z,5.46
2023-04-02T04:07:47.552Z,5.42
2023-04-02T04:11:53.823Z,5.34
2023-04-02T04:16:06.157Z,5.31
2023-04-02T04:20:22.256Z,5.23
2023-04-02T04:24:27.139Z,5.18
2023-04-02T04:28:38.619Z,5.13
2023-04-02T04:32:51.314Z,5.06
2023-04-02T04:37:01.926Z,5.07
2023-04-02T04:41:08.558Z,5.06
2023-04-02T04:45:36.210Z,5.06
2023-04-02T04:49:46.302Z,5.07
2023-04-02T04:53:51.466Z,5.06
2023-04-02T04:57:58.140Z,5.07
2023-04-02T05:02:06.301Z,5.08
2023-04-02T05:06:18.652Z,5.05
2023-04-02T05:10:30.557Z,5.06
2023-04-02T05:14:38.184Z,5.08
2023-04-02T05:18:47.769Z,5.09
2023-04-02T05:22:54.527Z,5.08
2023-04-02T05:27:03.850Z,5.09
2023-04-02T05:31:11.436Z,5.07
2023-04-02T05:35:22.881Z,5.02
2023-04-02T05:39:29.265Z,5.03
2023-04-02T05:43:35.687Z,5.01
2023-04-02T05:47:43.522Z,5.06
2023-04-02T05:51:50.636Z,5.09
2023-04-02T05:56:00.743Z,5.10
2023-04-02T06:00:11.161Z,5.06
2023-04-02T06:04:24.208Z,5.03
2023-04-02T06:08:36.670Z,4.99
2023-04-02T06:12:46.885Z,4.95
2023-04-02T06:16:50.210Z,4.89
2023-04-02T06:20:53.466Z,4.82
2023-04-02T06:25:02.235Z,4.78
2023-04-02T06:29:14.698Z,4.80
2023-04-02T06:33:19.690Z,4.77
2023-04-02T06:37:28.917Z,4.75
2023-04-02T18:03:54.097Z,1.77
2023-04-02T18:08:06.824Z,1.92
2023-04-02T18:12:27.194Z,2.08
2023-04-02T18:16:51.525Z,2.23
2023-04-02T18:21:08.347Z,2.34
2023-04-02T18:25:27.330Z,2.46
2023-04-02T18:29:38.266Z,2.52
2023-04-02T18:34:05.274Z,2.58
2023-04-02T18:38:30.893Z,2.64
2023-04-02T18:42:51.237Z,2.67
2023-04-02T18:46:57.902Z,2.73
2023-04-02T18:51:02.018Z,2.76
2023-04-02T18:55:09.588Z,2.78
2023-04-02T18:59:33.932Z,2.81
2023-04-02T19:03:43.150Z,2.84
2023-04-02T19:07:50.999Z,2.86
2023-04-02T19:11:55.765Z,2.86
2023-04-02T19:16:25.628Z,2.86
2023-04-02T19:20:35.355Z,2.86
2023-04-02T19:24:51.907Z,2.88
2023-04-02T19:29:05.730Z,2.88
2023-04-02T19:33:29.412Z,2.90
2023-04-02T19:37:42.321Z,2.92
2023-04-02T19:41:51.543Z,2.93
2023-04-02T19:45:58.751Z,2.92
2023-04-02T19:50:01.900Z,2.91
2023-04-02T19:54:05.535Z,2.91
2023-04-02T19:58:25.031Z,2.91
2023-04-02T20:02:29.796Z,2.89
2023-04-02T20:06:33.630Z,2.92
2023-04-02T20:10:36.743Z,2.93
2023-04-02T20:14:39.782Z,3.00
2023-04-02T20:18:47.171Z,3.03
2023-04-02T20:22:50.867Z,3.02
2023-04-02T20:26:53.912Z,3.02
2023-04-02T20:31:07.096Z,3.00
2023-04-02T20:35:13.918Z,2.95
2023-04-02T20:39:20.497Z,2.90
2023-04-02T20:43:25.612Z,2.88
2023-04-02T20:47:28.796Z,2.86
2023-04-02T20:51:34.507Z,2.83
2023-04-02T20:55:37.689Z,2.82
2023-04-02T20:59:40.719Z,2.79
2023-04-02T21:03:43.918Z,2.76
2023-04-02T21:07:49.481Z,2.74
2023-04-02T21:11:52.748Z,2.71
2023-04-02T21:15:55.923Z,2.69
2023-04-02T21:19:59.390Z,2.68
2023-04-02T21:24:05.964Z,2.67
2023-04-02T21:28:08.842Z,2.66
2023-04-02T21:32:20.899Z,2.63
2023-04-02T21:36:26.748Z,2.61
2023-04-02T21:40:33.603Z,2.58
2023-04-02T21:44:37.302Z,2.52
2023-04-02T21:48:40.776Z,2.50
2023-04-02T21:52:43.456Z,2.44
2023-04-02T21:56:47.822Z,2.40
2023-04-02T22:00:51.194Z,2.32
2023-04-02T22:04:54.089Z,2.28
2023-04-02T22:08:59.255Z,2.27
2023-04-02T22:13:03.919Z,2.25
2023-04-02T22:17:07.590Z,2.21
2023-04-02T22:21:12.101Z,2.17
2023-04-02T22:25:15.063Z,2.16
2023-04-02T22:29:19.873Z,2.13
2023-04-02T22:33:23.193Z,2.15
2023-04-02T22:37:26.357Z,2.09
2023-04-02T22:41:32.201Z,2.01
2023-04-02T22:45:36.695Z,1.93
2023-04-02T22:49:41.760Z,1.89
2023-04-02T22:53:46.235Z,1.86
2023-04-02T22:57:57.237Z,1.80
2023-04-02T23:02:13.351Z,1.80
2023-04-02T23:06:19.228Z,1.79
2023-04-02T23:10:22.199Z,1.78
2023-04-02T23:14:24.716Z,1.68
2023-04-02T23:18:29.196Z,1.59
2023-04-02T23:22:32.534Z,1.54
2023-04-02T23:26:35.565Z,1.49
2023-04-02T23:30:38.835Z,1.41
2023-04-02T23:34:43.506Z,1.25
2023-04-02T23:38:46.656Z,1.19
2023-04-02T23:42:49.516Z,1.09
2023-04-02T23:46:52.842Z,0.96
2023-04-02T23:50:57.283Z,0.85
2023-04-02T23:55:00.738Z,0.81
2023-04-02T23:59:04.161Z,0.70
